Terminal Aerodrome Forecast
Issued by NWS

Home | Current Version | Previous Version | Text Only | Print | Product List | Glossary Off
Versions: 1 2 3 4 5 6 7 8 9 10 11 12 13

071
FTUS43 KTOP 031013 AAA
TAFMHK
TAF AMD
KMHK 031013Z 0310/0406 23005KT P6SM FEW050 SCT150
      TEMPO 0310/0313 3SM BR=

USA.gov is the U.S. government's official web portal to all federal, state and local government web resources and services.